sensor_id;sensor_type;location;lat;lon;timestamp;P1;durP1;ratioP1;P2;durP2;ratioP2
56141;SDS011;42018;48.588;10.836;2024-01-30T00:01:44;21.02;;;12.02;;
56141;SDS011;42018;48.588;10.836;2024-01-30T00:04:30;20.75;;;12.07;;
56141;SDS011;42018;48.588;10.836;2024-01-30T00:07:15;14.35;;;10.02;;
56141;SDS011;42018;48.588;10.836;2024-01-30T00:10:01;15.82;;;9.57;;
56141;SDS011;42018;48.588;10.836;2024-01-30T00:12:47;14.82;;;9.57;;
56141;SDS011;42018;48.588;10.836;2024-01-30T00:15:32;16.60;;;9.48;;
56141;SDS011;42018;48.588;10.836;2024-01-30T00:18:18;14.05;;;9.95;;
56141;SDS011;42018;48.588;10.836;2024-01-30T00:21:04;16.52;;;10.20;;
56141;SDS011;42018;48.588;10.836;2024-01-30T00:23:50;16.00;;;9.98;;
56141;SDS011;42018;48.588;10.836;2024-01-30T00:26:35;16.83;;;10.32;;
56141;SDS011;42018;48.588;10.836;2024-01-30T00:29:21;14.45;;;9.10;;
56141;SDS011;42018;48.588;10.836;2024-01-30T00:32:08;20.42;;;12.32;;
56141;SDS011;42018;48.588;10.836;2024-01-30T00:34:53;13.95;;;8.75;;
56141;SDS011;42018;48.588;10.836;2024-01-30T00:37:39;15.27;;;8.52;;
56141;SDS011;42018;48.588;10.836;2024-01-30T00:40:24;13.25;;;8.85;;
56141;SDS011;42018;48.588;10.836;2024-01-30T00:43:10;14.50;;;9.02;;
56141;SDS011;42018;48.588;10.836;2024-01-30T00:45:55;15.65;;;10.38;;
56141;SDS011;42018;48.588;10.836;2024-01-30T00:48:41;13.82;;;8.70;;
56141;SDS011;42018;48.588;10.836;2024-01-30T00:51:26;13.25;;;9.00;;
56141;SDS011;42018;48.588;10.836;2024-01-30T00:54:14;14.38;;;9.15;;
56141;SDS011;42018;48.588;10.836;2024-01-30T00:57:00;14.32;;;9.18;;
56141;SDS011;42018;48.588;10.836;2024-01-30T00:59:45;14.50;;;9.25;;
56141;SDS011;42018;48.588;10.836;2024-01-30T01:02:31;13.43;;;9.20;;
56141;SDS011;42018;48.588;10.836;2024-01-30T01:05:17;14.95;;;9.05;;
56141;SDS011;42018;48.588;10.836;2024-01-30T01:08:02;16.42;;;9.77;;
56141;SDS011;42018;48.588;10.836;2024-01-30T01:10:48;14.63;;;10.35;;
56141;SDS011;42018;48.588;10.836;2024-01-30T01:13:34;14.07;;;9.30;;
56141;SDS011;42018;48.588;10.836;2024-01-30T01:16:19;13.57;;;9.38;;
56141;SDS011;42018;48.588;10.836;2024-01-30T01:19:05;17.77;;;12.55;;
56141;SDS011;42018;48.588;10.836;2024-01-30T01:21:51;19.70;;;12.93;;
56141;SDS011;42018;48.588;10.836;2024-01-30T01:24:36;19.67;;;12.65;;
56141;SDS011;42018;48.588;10.836;2024-01-30T01:27:22;18.02;;;12.10;;
56141;SDS011;42018;48.588;10.836;2024-01-30T01:30:10;15.75;;;10.27;;
56141;SDS011;42018;48.588;10.836;2024-01-30T01:32:59;13.73;;;8.82;;
56141;SDS011;42018;48.588;10.836;2024-01-30T01:35:47;13.15;;;8.60;;
56141;SDS011;42018;48.588;10.836;2024-01-30T01:38:33;20.52;;;12.85;;
56141;SDS011;42018;48.588;10.836;2024-01-30T01:41:18;20.77;;;11.65;;
56141;SDS011;42018;48.588;10.836;2024-01-30T01:44:04;14.70;;;10.05;;
56141;SDS011;42018;48.588;10.836;2024-01-30T01:46:50;16.35;;;10.10;;
56141;SDS011;42018;48.588;10.836;2024-01-30T01:49:37;13.85;;;9.15;;
56141;SDS011;42018;48.588;10.836;2024-01-30T01:52:23;14.68;;;9.27;;
56141;SDS011;42018;48.588;10.836;2024-01-30T01:55:09;15.13;;;9.23;;
56141;SDS011;42018;48.588;10.836;2024-01-30T01:57:57;14.68;;;8.85;;
56141;SDS011;42018;48.588;10.836;2024-01-30T02:00:43;14.63;;;9.23;;
56141;SDS011;42018;48.588;10.836;2024-01-30T02:03:29;12.82;;;8.95;;
56141;SDS011;42018;48.588;10.836;2024-01-30T02:06:15;14.25;;;8.45;;
56141;SDS011;42018;48.588;10.836;2024-01-30T02:09:01;17.35;;;9.75;;
56141;SDS011;42018;48.588;10.836;2024-01-30T02:11:47;13.25;;;8.88;;
56141;SDS011;42018;48.588;10.836;2024-01-30T02:14:32;12.95;;;8.43;;
56141;SDS011;42018;48.588;10.836;2024-01-30T02:17:18;13.68;;;9.10;;
56141;SDS011;42018;48.588;10.836;2024-01-30T02:20:04;13.30;;;8.90;;
56141;SDS011;42018;48.588;10.836;2024-01-30T02:22:51;14.70;;;9.98;;
56141;SDS011;42018;48.588;10.836;2024-01-30T02:25:42;15.98;;;10.13;;
56141;SDS011;42018;48.588;10.836;2024-01-30T02:28:29;16.58;;;9.95;;
56141;SDS011;42018;48.588;10.836;2024-01-30T02:31:15;15.43;;;9.48;;
56141;SDS011;42018;48.588;10.836;2024-01-30T02:34:01;14.07;;;8.82;;
56141;SDS011;42018;48.588;10.836;2024-01-30T02:36:46;13.85;;;8.88;;
56141;SDS011;42018;48.588;10.836;2024-01-30T02:39:32;15.57;;;9.50;;
56141;SDS011;42018;48.588;10.836;2024-01-30T02:42:17;13.40;;;8.95;;
56141;SDS011;42018;48.588;10.836;2024-01-30T02:45:03;13.32;;;8.52;;
56141;SDS011;42018;48.588;10.836;2024-01-30T02:47:49;13.05;;;8.48;;
56141;SDS011;42018;48.588;10.836;2024-01-30T02:50:34;14.70;;;9.07;;
56141;SDS011;42018;48.588;10.836;2024-01-30T02:53:20;14.85;;;9.65;;
56141;SDS011;42018;48.588;10.836;2024-01-30T02:56:05;14.98;;;9.88;;
56141;SDS011;42018;48.588;10.836;2024-01-30T02:58:54;13.90;;;8.55;;
56141;SDS011;42018;48.588;10.836;2024-01-30T03:01:43;13.50;;;8.77;;
56141;SDS011;42018;48.588;10.836;2024-01-30T03:04:29;14.18;;;9.40;;
56141;SDS011;42018;48.588;10.836;2024-01-30T03:07:15;16.73;;;9.30;;
56141;SDS011;42018;48.588;10.836;2024-01-30T03:10:00;14.88;;;9.75;;
56141;SDS011;42018;48.588;10.836;2024-01-30T03:12:46;13.02;;;8.20;;
56141;SDS011;42018;48.588;10.836;2024-01-30T03:15:32;13.02;;;7.80;;
56141;SDS011;42018;48.588;10.836;2024-01-30T03:18:17;11.95;;;7.57;;
56141;SDS011;42018;48.588;10.836;2024-01-30T03:21:03;13.18;;;8.85;;
56141;SDS011;42018;48.588;10.836;2024-01-30T03:23:49;15.55;;;8.55;;
56141;SDS011;42018;48.588;10.836;2024-01-30T03:26:34;12.73;;;8.25;;
56141;SDS011;42018;48.588;10.836;2024-01-30T03:29:20;12.88;;;8.13;;
56141;SDS011;42018;48.588;10.836;2024-01-30T03:32:05;11.68;;;7.78;;
56141;SDS011;42018;48.588;10.836;2024-01-30T03:34:51;13.63;;;7.60;;
56141;SDS011;42018;48.588;10.836;2024-01-30T03:37:37;13.60;;;7.65;;
56141;SDS011;42018;48.588;10.836;2024-01-30T03:40:22;12.63;;;8.10;;
56141;SDS011;42018;48.588;10.836;2024-01-30T03:43:08;16.50;;;8.23;;
56141;SDS011;42018;48.588;10.836;2024-01-30T03:45:53;17.83;;;8.68;;
56141;SDS011;42018;48.588;10.836;2024-01-30T03:48:39;12.75;;;8.10;;
56141;SDS011;42018;48.588;10.836;2024-01-30T03:51:25;15.10;;;8.07;;
56141;SDS011;42018;48.588;10.836;2024-01-30T03:54:10;10.70;;;6.97;;
56141;SDS011;42018;48.588;10.836;2024-01-30T03:56:56;10.95;;;6.35;;
56141;SDS011;42018;48.588;10.836;2024-01-30T03:59:45;12.10;;;6.72;;
56141;SDS011;42018;48.588;10.836;2024-01-30T04:02:30;10.88;;;6.47;;
56141;SDS011;42018;48.588;10.836;2024-01-30T04:05:16;11.77;;;6.55;;
56141;SDS011;42018;48.588;10.836;2024-01-30T04:08:01;8.75;;;5.40;;
56141;SDS011;42018;48.588;10.836;2024-01-30T04:10:47;8.93;;;6.18;;
56141;SDS011;42018;48.588;10.836;2024-01-30T04:13:33;9.57;;;6.47;;
56141;SDS011;42018;48.588;10.836;2024-01-30T04:16:19;11.10;;;6.82;;
56141;SDS011;42018;48.588;10.836;2024-01-30T04:19:06;10.35;;;6.70;;
56141;SDS011;42018;48.588;10.836;2024-01-30T04:21:52;12.82;;;6.75;;
56141;SDS011;42018;48.588;10.836;2024-01-30T04:24:37;12.88;;;7.88;;
56141;SDS011;42018;48.588;10.836;2024-01-30T04:27:23;11.80;;;8.00;;
56141;SDS011;42018;48.588;10.836;2024-01-30T04:30:08;10.63;;;6.82;;
56141;SDS011;42018;48.588;10.836;2024-01-30T04:32:55;9.20;;;6.05;;
56141;SDS011;42018;48.588;10.836;2024-01-30T04:35:40;11.13;;;6.55;;
56141;SDS011;42018;48.588;10.836;2024-01-30T04:38:26;9.93;;;6.88;;
56141;SDS011;42018;48.588;10.836;2024-01-30T04:41:11;9.93;;;5.93;;
56141;SDS011;42018;48.588;10.836;2024-01-30T04:43:57;10.55;;;6.18;;
56141;SDS011;42018;48.588;10.836;2024-01-30T04:46:43;9.70;;;6.15;;
56141;SDS011;42018;48.588;10.836;2024-01-30T04:49:28;10.95;;;6.85;;
56141;SDS011;42018;48.588;10.836;2024-01-30T04:52:14;10.60;;;6.95;;
56141;SDS011;42018;48.588;10.836;2024-01-30T04:55:00;11.70;;;7.00;;
56141;SDS011;42018;48.588;10.836;2024-01-30T04:57:46;11.32;;;7.10;;
56141;SDS011;42018;48.588;10.836;2024-01-30T05:00:32;15.25;;;7.50;;
56141;SDS011;42018;48.588;10.836;2024-01-30T05:03:18;11.13;;;6.93;;
56141;SDS011;42018;48.588;10.836;2024-01-30T05:06:05;10.55;;;6.45;;
56141;SDS011;42018;48.588;10.836;2024-01-30T05:08:50;11.52;;;6.57;;
56141;SDS011;42018;48.588;10.836;2024-01-30T05:11:37;9.43;;;6.07;;
56141;SDS011;42018;48.588;10.836;2024-01-30T05:14:23;10.55;;;6.47;;
56141;SDS011;42018;48.588;10.836;2024-01-30T05:17:09;11.13;;;7.35;;
56141;SDS011;42018;48.588;10.836;2024-01-30T05:19:57;11.95;;;6.78;;
56141;SDS011;42018;48.588;10.836;2024-01-30T05:22:43;12.40;;;7.13;;
56141;SDS011;42018;48.588;10.836;2024-01-30T05:25:30;10.27;;;6.25;;
56141;SDS011;42018;48.588;10.836;2024-01-30T05:28:15;12.07;;;6.47;;
56141;SDS011;42018;48.588;10.836;2024-01-30T05:31:04;10.15;;;6.97;;
56141;SDS011;42018;48.588;10.836;2024-01-30T05:33:49;10.43;;;6.28;;
56141;SDS011;42018;48.588;10.836;2024-01-30T05:36:35;11.65;;;7.15;;
56141;SDS011;42018;48.588;10.836;2024-01-30T05:39:20;11.95;;;7.78;;
56141;SDS011;42018;48.588;10.836;2024-01-30T05:42:06;11.52;;;7.15;;
56141;SDS011;42018;48.588;10.836;2024-01-30T05:44:51;11.40;;;7.68;;
56141;SDS011;42018;48.588;10.836;2024-01-30T05:47:37;10.55;;;6.55;;
56141;SDS011;42018;48.588;10.836;2024-01-30T05:50:23;10.90;;;6.00;;
56141;SDS011;42018;48.588;10.836;2024-01-30T05:53:09;11.73;;;7.30;;
56141;SDS011;42018;48.588;10.836;2024-01-30T05:55:54;11.15;;;6.85;;
56141;SDS011;42018;48.588;10.836;2024-01-30T05:58:40;9.85;;;5.93;;
56141;SDS011;42018;48.588;10.836;2024-01-30T06:01:25;12.45;;;6.82;;
56141;SDS011;42018;48.588;10.836;2024-01-30T06:04:11;11.48;;;6.45;;
56141;SDS011;42018;48.588;10.836;2024-01-30T06:06:57;11.50;;;7.18;;
56141;SDS011;42018;48.588;10.836;2024-01-30T06:09:42;12.93;;;7.80;;
56141;SDS011;42018;48.588;10.836;2024-01-30T06:12:28;12.18;;;8.07;;
56141;SDS011;42018;48.588;10.836;2024-01-30T06:15:14;11.65;;;6.95;;
56141;SDS011;42018;48.588;10.836;2024-01-30T06:17:59;11.45;;;6.53;;
56141;SDS011;42018;48.588;10.836;2024-01-30T06:20:45;12.32;;;6.78;;
56141;SDS011;42018;48.588;10.836;2024-01-30T06:23:31;11.48;;;7.32;;
56141;SDS011;42018;48.588;10.836;2024-01-30T06:26:16;12.63;;;7.20;;
56141;SDS011;42018;48.588;10.836;2024-01-30T06:29:02;11.00;;;6.68;;
56141;SDS011;42018;48.588;10.836;2024-01-30T06:31:47;11.60;;;6.95;;
56141;SDS011;42018;48.588;10.836;2024-01-30T06:34:33;11.18;;;7.47;;
56141;SDS011;42018;48.588;10.836;2024-01-30T06:37:18;11.15;;;6.82;;
56141;SDS011;42018;48.588;10.836;2024-01-30T06:40:04;10.75;;;6.97;;
56141;SDS011;42018;48.588;10.836;2024-01-30T06:42:50;11.77;;;7.25;;
56141;SDS011;42018;48.588;10.836;2024-01-30T06:45:36;15.73;;;7.72;;
56141;SDS011;42018;48.588;10.836;2024-01-30T06:48:22;10.80;;;7.00;;
56141;SDS011;42018;48.588;10.836;2024-01-30T06:51:08;12.65;;;7.53;;
56141;SDS011;42018;48.588;10.836;2024-01-30T06:53:53;11.15;;;6.95;;
56141;SDS011;42018;48.588;10.836;2024-01-30T06:56:39;11.75;;;6.75;;
56141;SDS011;42018;48.588;10.836;2024-01-30T06:59:24;10.75;;;7.03;;
56141;SDS011;42018;48.588;10.836;2024-01-30T07:02:10;11.43;;;7.13;;
56141;SDS011;42018;48.588;10.836;2024-01-30T07:04:56;10.98;;;6.70;;
56141;SDS011;42018;48.588;10.836;2024-01-30T07:07:41;10.60;;;7.00;;
56141;SDS011;42018;48.588;10.836;2024-01-30T07:10:27;10.52;;;6.72;;
56141;SDS011;42018;48.588;10.836;2024-01-30T07:13:12;9.82;;;6.53;;
56141;SDS011;42018;48.588;10.836;2024-01-30T07:15:58;13.27;;;7.38;;
56141;SDS011;42018;48.588;10.836;2024-01-30T07:18:43;12.52;;;7.13;;
56141;SDS011;42018;48.588;10.836;2024-01-30T07:21:29;11.13;;;6.65;;
56141;SDS011;42018;48.588;10.836;2024-01-30T07:24:15;11.45;;;6.80;;
56141;SDS011;42018;48.588;10.836;2024-01-30T07:27:00;13.10;;;7.15;;
56141;SDS011;42018;48.588;10.836;2024-01-30T07:29:46;11.82;;;7.50;;
56141;SDS011;42018;48.588;10.836;2024-01-30T07:32:31;10.88;;;6.55;;
56141;SDS011;42018;48.588;10.836;2024-01-30T07:35:17;10.32;;;7.03;;
56141;SDS011;42018;48.588;10.836;2024-01-30T07:38:02;11.73;;;7.32;;
56141;SDS011;42018;48.588;10.836;2024-01-30T07:40:48;13.38;;;7.85;;
56141;SDS011;42018;48.588;10.836;2024-01-30T07:43:34;13.45;;;8.48;;
56141;SDS011;42018;48.588;10.836;2024-01-30T07:46:20;14.25;;;8.93;;
56141;SDS011;42018;48.588;10.836;2024-01-30T07:49:06;14.57;;;8.85;;
56141;SDS011;42018;48.588;10.836;2024-01-30T07:51:52;13.60;;;8.70;;
56141;SDS011;42018;48.588;10.836;2024-01-30T07:54:40;13.40;;;8.98;;
56141;SDS011;42018;48.588;10.836;2024-01-30T07:57:26;13.32;;;8.63;;
56141;SDS011;42018;48.588;10.836;2024-01-30T08:00:12;15.35;;;10.00;;
56141;SDS011;42018;48.588;10.836;2024-01-30T08:02:58;18.05;;;10.07;;
56141;SDS011;42018;48.588;10.836;2024-01-30T08:05:43;21.98;;;12.07;;
56141;SDS011;42018;48.588;10.836;2024-01-30T08:08:29;12.38;;;9.35;;
56141;SDS011;42018;48.588;10.836;2024-01-30T08:11:14;16.33;;;9.15;;
56141;SDS011;42018;48.588;10.836;2024-01-30T08:14:00;15.00;;;8.77;;
56141;SDS011;42018;48.588;10.836;2024-01-30T08:16:46;13.38;;;8.75;;
56141;SDS011;42018;48.588;10.836;2024-01-30T08:19:31;13.88;;;9.50;;
56141;SDS011;42018;48.588;10.836;2024-01-30T08:22:17;13.30;;;8.80;;
56141;SDS011;42018;48.588;10.836;2024-01-30T08:25:03;12.38;;;8.30;;
56141;SDS011;42018;48.588;10.836;2024-01-30T08:27:48;13.07;;;8.30;;
56141;SDS011;42018;48.588;10.836;2024-01-30T08:30:34;15.13;;;9.13;;
56141;SDS011;42018;48.588;10.836;2024-01-30T08:33:19;14.30;;;8.85;;
56141;SDS011;42018;48.588;10.836;2024-01-30T08:36:05;12.57;;;8.48;;
56141;SDS011;42018;48.588;10.836;2024-01-30T08:38:51;13.55;;;9.85;;
56141;SDS011;42018;48.588;10.836;2024-01-30T08:41:36;16.90;;;9.98;;
56141;SDS011;42018;48.588;10.836;2024-01-30T08:44:21;13.60;;;9.00;;
56141;SDS011;42018;48.588;10.836;2024-01-30T08:47:07;14.98;;;9.57;;
56141;SDS011;42018;48.588;10.836;2024-01-30T08:49:52;15.38;;;9.98;;
56141;SDS011;42018;48.588;10.836;2024-01-30T08:52:38;18.10;;;10.60;;
56141;SDS011;42018;48.588;10.836;2024-01-30T08:55:23;16.55;;;9.68;;
56141;SDS011;42018;48.588;10.836;2024-01-30T08:58:09;14.80;;;9.73;;
56141;SDS011;42018;48.588;10.836;2024-01-30T09:00:54;15.23;;;9.63;;
56141;SDS011;42018;48.588;10.836;2024-01-30T09:03:40;14.07;;;9.07;;
56141;SDS011;42018;48.588;10.836;2024-01-30T09:06:28;13.48;;;9.18;;
56141;SDS011;42018;48.588;10.836;2024-01-30T09:09:14;15.05;;;10.07;;
56141;SDS011;42018;48.588;10.836;2024-01-30T09:11:59;15.48;;;10.77;;
56141;SDS011;42018;48.588;10.836;2024-01-30T09:14:49;16.90;;;9.73;;
56141;SDS011;42018;48.588;10.836;2024-01-30T09:17:35;14.95;;;9.85;;
56141;SDS011;42018;48.588;10.836;2024-01-30T09:20:20;17.58;;;10.95;;
56141;SDS011;42018;48.588;10.836;2024-01-30T09:23:07;15.85;;;10.15;;
56141;SDS011;42018;48.588;10.836;2024-01-30T09:25:53;17.60;;;11.18;;
56141;SDS011;42018;48.588;10.836;2024-01-30T09:28:39;14.40;;;10.07;;
56141;SDS011;42018;48.588;10.836;2024-01-30T09:31:24;16.65;;;10.38;;
56141;SDS011;42018;48.588;10.836;2024-01-30T09:34:10;17.83;;;11.82;;
56141;SDS011;42018;48.588;10.836;2024-01-30T09:36:55;14.77;;;10.82;;
56141;SDS011;42018;48.588;10.836;2024-01-30T09:39:41;17.25;;;11.23;;
56141;SDS011;42018;48.588;10.836;2024-01-30T09:45:23;16.55;;;10.00;;
56141;SDS011;42018;48.588;10.836;2024-01-30T09:48:10;16.02;;;9.80;;
56141;SDS011;42018;48.588;10.836;2024-01-30T09:50:56;14.30;;;9.70;;
56141;SDS011;42018;48.588;10.836;2024-01-30T09:53:43;14.13;;;9.95;;
56141;SDS011;42018;48.588;10.836;2024-01-30T09:56:29;15.23;;;10.95;;
56141;SDS011;42018;48.588;10.836;2024-01-30T09:59:15;14.75;;;9.73;;
56141;SDS011;42018;48.588;10.836;2024-01-30T10:02:00;14.52;;;9.85;;
56141;SDS011;42018;48.588;10.836;2024-01-30T10:04:50;14.65;;;10.95;;
56141;SDS011;42018;48.588;10.836;2024-01-30T10:07:36;16.08;;;11.18;;
56141;SDS011;42018;48.588;10.836;2024-01-30T10:10:22;16.13;;;10.80;;
56141;SDS011;42018;48.588;10.836;2024-01-30T10:13:11;14.48;;;9.82;;
56141;SDS011;42018;48.588;10.836;2024-01-30T10:15:56;14.18;;;9.57;;
56141;SDS011;42018;48.588;10.836;2024-01-30T10:18:43;16.40;;;9.95;;
56141;SDS011;42018;48.588;10.836;2024-01-30T10:21:29;16.30;;;9.90;;
56141;SDS011;42018;48.588;10.836;2024-01-30T10:24:15;11.48;;;8.43;;
56141;SDS011;42018;48.588;10.836;2024-01-30T10:27:02;13.77;;;8.48;;
56141;SDS011;42018;48.588;10.836;2024-01-30T10:29:48;12.43;;;8.15;;
56141;SDS011;42018;48.588;10.836;2024-01-30T10:32:34;12.55;;;8.02;;
56141;SDS011;42018;48.588;10.836;2024-01-30T10:35:19;9.98;;;7.50;;
56141;SDS011;42018;48.588;10.836;2024-01-30T10:38:05;12.40;;;8.02;;
56141;SDS011;42018;48.588;10.836;2024-01-30T10:40:56;11.65;;;7.75;;
56141;SDS011;42018;48.588;10.836;2024-01-30T10:43:42;10.85;;;7.80;;
56141;SDS011;42018;48.588;10.836;2024-01-30T10:46:42;15.70;;;8.52;;
56141;SDS011;42018;48.588;10.836;2024-01-30T10:49:30;10.77;;;8.10;;
56141;SDS011;42018;48.588;10.836;2024-01-30T10:52:16;11.88;;;7.80;;
56141;SDS011;42018;48.588;10.836;2024-01-30T10:55:03;11.52;;;7.50;;
56141;SDS011;42018;48.588;10.836;2024-01-30T10:57:51;14.60;;;8.27;;
56141;SDS011;42018;48.588;10.836;2024-01-30T11:00:36;12.73;;;8.38;;
56141;SDS011;42018;48.588;10.836;2024-01-30T11:03:22;11.40;;;8.07;;
56141;SDS011;42018;48.588;10.836;2024-01-30T11:06:12;13.02;;;8.40;;
56141;SDS011;42018;48.588;10.836;2024-01-30T11:09:04;14.75;;;9.20;;
56141;SDS011;42018;48.588;10.836;2024-01-30T11:11:58;13.65;;;8.85;;
56141;SDS011;42018;48.588;10.836;2024-01-30T11:14:48;17.02;;;10.27;;
56141;SDS011;42018;48.588;10.836;2024-01-30T11:20:29;15.65;;;10.60;;
56141;SDS011;42018;48.588;10.836;2024-01-30T11:26:02;25.30;;;14.52;;
56141;SDS011;42018;48.588;10.836;2024-01-30T11:28:52;17.98;;;11.93;;
56141;SDS011;42018;48.588;10.836;2024-01-30T11:31:38;16.45;;;10.93;;
56141;SDS011;42018;48.588;10.836;2024-01-30T11:34:24;14.60;;;9.70;;
56141;SDS011;42018;48.588;10.836;2024-01-30T11:37:09;14.45;;;9.98;;
56141;SDS011;42018;48.588;10.836;2024-01-30T11:39:58;14.73;;;9.85;;
56141;SDS011;42018;48.588;10.836;2024-01-30T11:42:44;14.25;;;10.07;;
56141;SDS011;42018;48.588;10.836;2024-01-30T11:45:32;14.85;;;9.80;;
56141;SDS011;42018;48.588;10.836;2024-01-30T11:48:18;15.32;;;9.70;;
56141;SDS011;42018;48.588;10.836;2024-01-30T11:51:04;13.15;;;9.73;;
56141;SDS011;42018;48.588;10.836;2024-01-30T11:53:50;14.52;;;10.00;;
56141;SDS011;42018;48.588;10.836;2024-01-30T11:56:36;13.60;;;9.82;;
56141;SDS011;42018;48.588;10.836;2024-01-30T11:59:22;15.63;;;9.90;;
56141;SDS011;42018;48.588;10.836;2024-01-30T12:02:07;14.63;;;10.02;;
56141;SDS011;42018;48.588;10.836;2024-01-30T12:04:53;15.90;;;9.80;;
56141;SDS011;42018;48.588;10.836;2024-01-30T12:07:39;17.42;;;10.88;;
56141;SDS011;42018;48.588;10.836;2024-01-30T12:10:24;18.67;;;12.00;;
56141;SDS011;42018;48.588;10.836;2024-01-30T12:13:10;14.95;;;10.65;;
56141;SDS011;42018;48.588;10.836;2024-01-30T12:15:56;17.98;;;11.40;;
56141;SDS011;42018;48.588;10.836;2024-01-30T12:18:42;17.38;;;11.98;;
56141;SDS011;42018;48.588;10.836;2024-01-30T12:21:27;18.15;;;11.32;;
56141;SDS011;42018;48.588;10.836;2024-01-30T12:24:14;16.27;;;11.60;;
56141;SDS011;42018;48.588;10.836;2024-01-30T12:27:00;16.27;;;10.45;;
56141;SDS011;42018;48.588;10.836;2024-01-30T12:29:45;16.20;;;10.68;;
56141;SDS011;42018;48.588;10.836;2024-01-30T12:32:31;15.20;;;10.88;;
56141;SDS011;42018;48.588;10.836;2024-01-30T12:35:17;14.93;;;10.02;;
56141;SDS011;42018;48.588;10.836;2024-01-30T12:38:03;14.93;;;10.75;;
56141;SDS011;42018;48.588;10.836;2024-01-30T12:40:49;15.93;;;10.65;;
56141;SDS011;42018;48.588;10.836;2024-01-30T12:43:35;15.55;;;10.48;;
56141;SDS011;42018;48.588;10.836;2024-01-30T12:46:21;15.20;;;10.27;;
56141;SDS011;42018;48.588;10.836;2024-01-30T12:49:10;17.75;;;11.57;;
56141;SDS011;42018;48.588;10.836;2024-01-30T12:51:56;15.10;;;10.48;;
56141;SDS011;42018;48.588;10.836;2024-01-30T12:54:42;15.40;;;10.90;;
56141;SDS011;42018;48.588;10.836;2024-01-30T12:57:27;16.52;;;10.93;;
56141;SDS011;42018;48.588;10.836;2024-01-30T13:00:13;14.60;;;10.05;;
56141;SDS011;42018;48.588;10.836;2024-01-30T13:02:59;15.90;;;10.70;;
56141;SDS011;42018;48.588;10.836;2024-01-30T13:05:44;14.45;;;10.75;;
56141;SDS011;42018;48.588;10.836;2024-01-30T13:08:30;17.98;;;10.35;;
56141;SDS011;42018;48.588;10.836;2024-01-30T13:11:15;13.50;;;9.43;;
56141;SDS011;42018;48.588;10.836;2024-01-30T13:14:01;15.32;;;9.60;;
56141;SDS011;42018;48.588;10.836;2024-01-30T13:16:46;13.18;;;9.63;;
56141;SDS011;42018;48.588;10.836;2024-01-30T13:19:32;14.65;;;10.27;;
56141;SDS011;42018;48.588;10.836;2024-01-30T13:22:17;15.35;;;10.10;;
56141;SDS011;42018;48.588;10.836;2024-01-30T13:25:03;14.82;;;10.57;;
56141;SDS011;42018;48.588;10.836;2024-01-30T13:27:48;18.42;;;11.73;;
56141;SDS011;42018;48.588;10.836;2024-01-30T13:30:34;15.10;;;10.63;;
56141;SDS011;42018;48.588;10.836;2024-01-30T13:33:19;15.77;;;10.52;;
56141;SDS011;42018;48.588;10.836;2024-01-30T13:36:05;13.57;;;10.07;;
56141;SDS011;42018;48.588;10.836;2024-01-30T13:38:51;14.75;;;10.90;;
56141;SDS011;42018;48.588;10.836;2024-01-30T13:41:37;14.02;;;10.95;;
56141;SDS011;42018;48.588;10.836;2024-01-30T13:44:22;16.20;;;11.18;;
56141;SDS011;42018;48.588;10.836;2024-01-30T13:47:08;14.63;;;11.40;;
56141;SDS011;42018;48.588;10.836;2024-01-30T13:49:53;15.82;;;10.85;;
56141;SDS011;42018;48.588;10.836;2024-01-30T13:52:39;12.70;;;11.20;;
56141;SDS011;42018;48.588;10.836;2024-01-30T13:55:24;13.55;;;9.30;;
56141;SDS011;42018;48.588;10.836;2024-01-30T13:58:10;12.93;;;10.45;;
56141;SDS011;42018;48.588;10.836;2024-01-30T14:00:55;14.68;;;11.23;;
56141;SDS011;42018;48.588;10.836;2024-01-30T14:03:41;14.85;;;10.65;;
56141;SDS011;42018;48.588;10.836;2024-01-30T14:06:27;13.13;;;10.32;;
56141;SDS011;42018;48.588;10.836;2024-01-30T14:09:12;12.63;;;10.35;;
56141;SDS011;42018;48.588;10.836;2024-01-30T14:12:00;12.05;;;8.93;;
56141;SDS011;42018;48.588;10.836;2024-01-30T14:14:45;13.10;;;10.77;;
56141;SDS011;42018;48.588;10.836;2024-01-30T14:17:31;13.75;;;11.10;;
56141;SDS011;42018;48.588;10.836;2024-01-30T14:20:16;15.38;;;11.07;;
56141;SDS011;42018;48.588;10.836;2024-01-30T14:23:02;12.75;;;10.63;;
56141;SDS011;42018;48.588;10.836;2024-01-30T14:25:48;13.65;;;11.02;;
56141;SDS011;42018;48.588;10.836;2024-01-30T14:28:34;14.27;;;11.82;;
56141;SDS011;42018;48.588;10.836;2024-01-30T14:31:19;15.55;;;11.30;;
56141;SDS011;42018;48.588;10.836;2024-01-30T14:34:05;14.70;;;11.98;;
56141;SDS011;42018;48.588;10.836;2024-01-30T14:36:51;13.30;;;10.15;;
56141;SDS011;42018;48.588;10.836;2024-01-30T14:39:36;17.23;;;12.63;;
56141;SDS011;42018;48.588;10.836;2024-01-30T14:42:22;16.10;;;11.85;;
56141;SDS011;42018;48.588;10.836;2024-01-30T14:45:07;14.43;;;11.70;;
56141;SDS011;42018;48.588;10.836;2024-01-30T14:47:54;16.35;;;11.68;;
56141;SDS011;42018;48.588;10.836;2024-01-30T14:50:41;13.40;;;10.70;;
56141;SDS011;42018;48.588;10.836;2024-01-30T14:53:26;15.18;;;10.98;;
56141;SDS011;42018;48.588;10.836;2024-01-30T14:56:12;15.35;;;12.18;;
56141;SDS011;42018;48.588;10.836;2024-01-30T14:58:58;14.93;;;11.05;;
56141;SDS011;42018;48.588;10.836;2024-01-30T15:01:43;14.13;;;10.60;;
56141;SDS011;42018;48.588;10.836;2024-01-30T15:04:30;14.27;;;10.88;;
56141;SDS011;42018;48.588;10.836;2024-01-30T15:07:15;16.67;;;11.77;;
56141;SDS011;42018;48.588;10.836;2024-01-30T15:10:01;18.33;;;13.63;;
56141;SDS011;42018;48.588;10.836;2024-01-30T15:12:48;15.05;;;12.15;;
56141;SDS011;42018;48.588;10.836;2024-01-30T15:15:34;16.48;;;13.27;;
56141;SDS011;42018;48.588;10.836;2024-01-30T15:18:19;15.43;;;11.60;;
56141;SDS011;42018;48.588;10.836;2024-01-30T15:21:05;14.70;;;11.90;;
56141;SDS011;42018;48.588;10.836;2024-01-30T15:23:51;14.57;;;11.45;;
56141;SDS011;42018;48.588;10.836;2024-01-30T15:26:37;15.20;;;10.73;;
56141;SDS011;42018;48.588;10.836;2024-01-30T15:29:22;15.43;;;11.65;;
56141;SDS011;42018;48.588;10.836;2024-01-30T15:32:08;16.35;;;12.95;;
56141;SDS011;42018;48.588;10.836;2024-01-30T15:34:54;16.67;;;11.77;;
56141;SDS011;42018;48.588;10.836;2024-01-30T15:37:41;15.05;;;11.52;;
56141;SDS011;42018;48.588;10.836;2024-01-30T15:40:27;14.30;;;10.43;;
56141;SDS011;42018;48.588;10.836;2024-01-30T15:43:13;15.30;;;11.30;;
56141;SDS011;42018;48.588;10.836;2024-01-30T15:45:59;14.75;;;10.63;;
56141;SDS011;42018;48.588;10.836;2024-01-30T15:48:47;13.93;;;10.63;;
56141;SDS011;42018;48.588;10.836;2024-01-30T15:51:33;14.93;;;11.65;;
56141;SDS011;42018;48.588;10.836;2024-01-30T15:54:19;17.23;;;12.75;;
56141;SDS011;42018;48.588;10.836;2024-01-30T15:57:05;15.75;;;11.65;;
56141;SDS011;42018;48.588;10.836;2024-01-30T15:59:51;16.80;;;12.88;;
56141;SDS011;42018;48.588;10.836;2024-01-30T16:02:37;17.35;;;12.93;;
56141;SDS011;42018;48.588;10.836;2024-01-30T16:05:22;16.95;;;12.85;;
56141;SDS011;42018;48.588;10.836;2024-01-30T16:08:08;19.42;;;13.63;;
56141;SDS011;42018;48.588;10.836;2024-01-30T16:10:54;19.55;;;13.57;;
56141;SDS011;42018;48.588;10.836;2024-01-30T16:13:39;17.10;;;12.20;;